Time;durP1;ratioP1;P1;durP2;ratioP2;P2;SDS_P1;SDS_P2;PMS_P1;PMS_P2;Temp;Humidity;BMP_temperature;BMP_pressure;BME280_temperature;BME280_humidity;BME280_pressure;Samples;Min_cycle;Max_cycle;Signal;HPM_P1;HPM_P2
2022/01/12 00:02:23;;;;;;;3.22;2.60;;;;;;;-2.97;59.69;101320.06;4470307;32;34044;-69
2022/01/12 00:04:52;;;;;;;0.57;0.57;;;;;;;-2.24;57.88;101323.88;4469364;32;34031;-67
2022/01/12 00:07:20;;;;;;;4.00;2.25;;;;;;;-2.95;59.33;101326.91;4470402;32;34867;-69
2022/01/12 00:09:47;;;;;;;0.50;0.50;;;;;;;-2.59;58.73;101324.94;4470122;32;33369;-69
2022/01/12 00:12:15;;;;;;;1.87;1.52;;;;;;;-2.28;58.64;101314.44;4470538;32;33976;-71
2022/01/12 00:14:42;;;;;;;0.52;0.52;;;;;;;-2.40;58.51;101320.75;4470479;32;34620;-69
2022/01/12 00:17:09;;;;;;;0.50;0.50;;;;;;;-2.34;58.20;101323.75;4470168;32;34057;-69
2022/01/12 00:19:37;;;;;;;2.20;2.05;;;;;;;-2.30;58.39;101319.03;4469999;32;33759;-68
2022/01/12 00:22:05;;;;;;;0.85;0.85;;;;;;;-2.38;58.52;101321.50;4470293;32;34575;-69
2022/01/12 00:25:02;;;;;;;1.75;1.10;;;;;;;-2.03;57.51;101323.91;4456212;32;34076;-69
2022/01/12 00:33:12;;;;;;;7.43;4.22;;;;;;;-3.14;60.03;101335.50;4470452;32;33913;-69
2022/01/12 00:35:42;;;;;;;0.88;0.88;;;;;;;-2.81;59.72;101330.28;4470194;32;33836;-68
2022/01/12 00:38:10;;;;;;;0.50;0.50;;;;;;;-3.15;60.65;101336.47;4470250;32;33961;-68
2022/01/12 00:40:39;;;;;;;13.90;8.05;;;;;;;-2.77;58.88;101339.69;4470299;32;33132;-69
2022/01/12 00:43:07;;;;;;;1.12;1.05;;;;;;;-2.96;58.84;101341.19;4456019;32;34460;-72
2022/01/12 00:45:41;;;;;;;1.65;1.35;;;;;;;-2.81;59.05;101343.56;4456065;32;35183;-70
2022/01/12 00:48:09;;;;;;;21.08;11.30;;;;;;;-3.15;60.09;101354.22;4456872;32;33686;-69
2022/01/12 00:50:38;;;;;;;6.57;3.67;;;;;;;-3.13;59.87;101353.13;4469965;32;34189;-68
2022/01/12 00:53:06;;;;;;;0.98;0.98;;;;;;;-3.32;60.19;101358.19;4469916;32;33616;-68
2022/01/12 00:55:33;;;;;;;8.27;2.17;;;;;;;-3.13;59.44;101354.94;4456055;32;35071;-68
2022/01/12 00:58:01;;;;;;;1.42;1.33;;;;;;;-3.01;59.28;101355.78;4456280;32;33764;-70
2022/01/12 01:00:29;;;;;;;1.20;1.10;;;;;;;-2.72;59.22;101356.97;4469972;32;33488;-69
2022/01/12 01:02:57;;;;;;;0.50;0.50;;;;;;;-2.69;58.04;101361.19;4470233;32;33870;-68
2022/01/12 01:05:27;;;;;;;0.98;0.95;;;;;;;-2.52;57.24;101357.19;4469815;32;34073;-68
2022/01/12 01:07:55;;;;;;;1.25;1.25;;;;;;;-2.18;56.54;101351.75;4456217;32;33963;-69
2022/01/12 01:11:06;;;;;;;0.50;0.50;;;;;;;-2.45;56.73;101345.06;4470224;32;33426;-68
2022/01/12 01:13:17;;;;;;;0.50;0.50;;;;;;;-2.56;58.03;101348.59;4462228;32;33482;-67
2022/01/12 01:26:39;;;;;;;0.50;0.50;;;;;;;-2.52;57.71;101357.19;4447738;32;35002;-68
2022/01/12 01:29:07;;;;;;;2.65;1.83;;;;;;;-2.65;58.32;101352.00;4455762;32;33598;-68
2022/01/12 01:31:35;;;;;;;0.60;0.60;;;;;;;-2.28;57.80;101351.66;4469942;32;34364;-68
2022/01/12 01:34:09;;;;;;;0.57;0.50;;;;;;;-2.48;58.13;101355.97;4456105;32;33794;-68
2022/01/12 01:36:45;;;;;;;0.50;0.50;;;;;;;-2.20;57.66;101356.34;4469762;32;34259;-68
2022/01/12 01:39:15;;;;;;;7.53;3.40;;;;;;;-2.34;57.95;101362.78;4469542;32;34761;-68
2022/01/12 01:41:48;;;;;;;0.52;0.52;;;;;;;-2.94;59.45;101363.16;4469824;32;33390;-68
2022/01/12 01:55:06;;;;;;;1.15;1.15;;;;;;;-2.07;56.56;101379.16;4469758;32;34606;-69
2022/01/12 01:57:34;;;;;;;0.73;0.70;;;;;;;-2.79;58.04;101376.16;4469815;32;34262;-68
2022/01/12 02:00:06;;;;;;;1.20;0.93;;;;;;;-2.55;58.95;101382.19;4455397;32;34204;-68
2022/01/12 02:02:35;;;;;;;0.70;0.70;;;;;;;-2.64;58.83;101379.41;4455919;32;34400;-68
2022/01/12 02:05:04;;;;;;;0.40;0.40;;;;;;;-2.54;58.11;101381.22;4455533;32;33371;-68
2022/01/12 02:07:33;;;;;;;22.80;11.38;;;;;;;-2.89;59.09;101379.56;4469784;32;34250;-68
2022/01/12 02:10:02;;;;;;;1.40;1.30;;;;;;;-2.90;59.52;101377.84;4455090;32;33789;-68
2022/01/12 02:12:30;;;;;;;2.72;2.10;;;;;;;-2.53;57.81;101380.25;4469727;32;31691;-69
2022/01/12 02:15:02;;;;;;;0.70;0.70;;;;;;;-2.68;58.35;101378.81;4455422;32;34005;-69
2022/01/12 02:17:36;;;;;;;0.80;0.80;;;;;;;-2.60;57.93;101386.16;4455784;32;34199;-68
2022/01/12 02:36:31;;;;;;;0.88;0.88;;;;;;;-3.01;59.17;101383.16;4471052;32;33784;-69
2022/01/12 02:41:45;;;;;;;5.12;2.90;;;;;;;-3.08;59.65;101381.12;4470932;32;33553;-68
2022/01/12 02:54:46;;;;;;;8.38;4.97;;;;;;;-2.93;58.66;101388.72;4457069;32;33670;-69
2022/01/12 02:57:14;;;;;;;1.23;1.20;;;;;;;-3.07;59.43;101382.81;4470733;32;34873;-68
2022/01/12 03:00:02;;;;;;;2.37;1.95;;;;;;;-3.00;59.88;101395.50;4471248;32;35111;-68
2022/01/12 03:02:37;;;;;;;0.50;0.50;;;;;;;-2.75;58.89;101394.38;4459234;32;33980;-68
2022/01/12 03:05:33;;;;;;;;;;;;;;;-2.85;59.00;101392.56;4471352;32;33661;-68
2022/01/12 03:08:10;;;;;;;0.50;0.50;;;;;;;-3.36;60.62;101392.06;4470998;32;35070;-69
2022/01/12 03:10:37;;;;;;;0.50;0.50;;;;;;;-3.34;61.69;101395.44;4471001;32;33865;-68
2022/01/12 03:13:05;;;;;;;1.50;1.40;;;;;;;-3.45;62.03;101394.59;4470702;32;34735;-68
2022/01/12 03:15:39;;;;;;;0.70;0.60;;;;;;;-3.26;62.02;101394.88;4471147;32;33409;-68
2022/01/12 03:18:15;;;;;;;5.57;3.08;;;;;;;-3.18;62.34;101394.25;4470578;32;33861;-68
2022/01/12 03:20:45;;;;;;;25.17;5.00;;;;;;;-3.41;61.95;101393.37;4470583;32;34226;-68
2022/01/12 03:23:16;;;;;;;1.25;1.15;;;;;;;-3.34;61.44;101398.09;4470778;32;33501;-68
2022/01/12 03:25:43;;;;;;;0.50;0.50;;;;;;;-3.10;60.64;101395.34;4470830;32;33331;-68
2022/01/12 03:28:11;;;;;;;1.12;1.12;;;;;;;-2.90;59.82;101400.91;4456934;32;33757;-68
2022/01/12 03:30:54;;;;;;;0.60;0.60;;;;;;;-2.89;58.82;101402.63;4456696;32;34187;-68
2022/01/12 03:38:54;;;;;;;2.08;1.67;;;;;;;-3.24;60.60;101400.91;4458425;32;33988;-69
2022/01/12 03:41:24;;;;;;;0.60;0.60;;;;;;;-3.22;61.06;101406.91;4456363;32;35367;-71
2022/01/12 03:43:53;;;;;;;0.73;0.60;;;;;;;-3.11;60.44;101404.28;4470620;32;34809;-69
2022/01/12 03:46:24;;;;;;;0.80;0.80;;;;;;;-3.69;62.45;101400.81;4470792;32;33674;-68
2022/01/12 03:48:52;;;;;;;0.60;0.60;;;;;;;-3.79;63.26;101399.78;4456613;32;34064;-68
2022/01/12 03:51:19;;;;;;;0.60;0.60;;;;;;;-4.24;65.12;101396.94;4470594;32;35039;-68
2022/01/12 03:53:47;;;;;;;1.48;1.02;;;;;;;-3.59;63.47;101393.81;4470380;32;33461;-68
2022/01/12 03:56:15;;;;;;;0.60;0.60;;;;;;;-4.07;64.14;101388.59;4469558;32;33599;-68
2022/01/12 03:58:42;;;;;;;0.50;0.50;;;;;;;-3.78;64.67;101396.16;4469465;32;33876;-67
2022/01/12 04:01:09;;;;;;;0.88;0.75;;;;;;;-3.64;63.64;101403.09;4474706;32;33965;-68
2022/01/12 04:03:42;;;;;;;0.98;0.98;;;;;;;-3.49;63.28;101404.59;4485154;32;34633;-68
2022/01/12 04:08:56;;;;;;;0.93;0.60;;;;;;;-3.90;64.34;101407.72;4473833;32;34743;-69
2022/01/12 04:11:23;;;;;;;0.73;0.60;;;;;;;-3.74;64.07;101410.88;4483135;32;33810;-68
2022/01/12 04:13:51;;;;;;;0.60;0.60;;;;;;;-3.73;63.59;101404.62;4485111;32;33475;-68
2022/01/12 04:16:18;;;;;;;0.80;0.80;;;;;;;-3.57;62.66;101404.31;4485688;32;33400;-68
2022/01/12 04:18:46;;;;;;;3.03;1.58;;;;;;;-3.34;62.11;101400.75;4486106;32;34021;-68
2022/01/12 04:21:13;;;;;;;0.88;0.88;;;;;;;-3.13;60.88;101400.91;4482857;32;34131;-69
2022/01/12 04:23:42;;;;;;;0.80;0.62;;;;;;;-3.49;62.03;101393.13;4485163;32;33760;-72
2022/01/12 04:26:12;;;;;;;1.12;1.10;;;;;;;-3.59;62.88;101401.78;4486078;32;33296;-69
2022/01/12 04:28:44;;;;;;;1.12;1.12;;;;;;;-3.48;62.22;101405.44;4485825;32;33615;-70
2022/01/12 04:31:13;;;;;;;0.50;0.50;;;;;;;-3.48;62.48;101402.78;4478013;32;34950;-69
2022/01/12 04:33:41;;;;;;;0.50;0.50;;;;;;;-3.40;62.43;101405.69;4469373;32;34103;-69
2022/01/12 04:36:12;;;;;;;0.60;0.60;;;;;;;-3.15;61.38;101402.84;4470407;32;33522;-70
2022/01/12 04:38:41;;;;;;;5.87;3.97;;;;;;;-3.45;61.65;101403.41;4470202;32;33799;-69
2022/01/12 04:41:09;;;;;;;0.57;0.57;;;;;;;-3.51;62.05;101410.00;4462634;32;33704;-70
2022/01/12 04:43:39;;;;;;;6.85;3.83;;;;;;;-3.32;60.92;101408.62;4484926;32;33986;-69
2022/01/12 04:48:49;;;;;;;1.75;1.30;;;;;;;-3.13;60.31;101413.34;4471813;32;33808;-70
2022/01/12 04:51:17;;;;;;;1.10;1.10;;;;;;;-3.60;61.72;101423.97;4469500;32;33988;-69
2022/01/12 04:53:46;;;;;;;0.50;0.50;;;;;;;-3.58;61.75;101418.56;4476448;32;33673;-69
2022/01/12 04:56:13;;;;;;;1.45;1.33;;;;;;;-3.98;62.86;101419.72;4455714;32;33222;-69
2022/01/12 04:58:41;;;;;;;15.77;6.40;;;;;;;-3.70;62.58;101420.31;4469921;32;33692;-69
2022/01/12 05:01:13;;;;;;;0.60;0.60;;;;;;;-3.69;62.72;101415.84;4470285;32;34283;-70
2022/01/12 05:06:43;;;;;;;0.60;0.60;;;;;;;-3.56;63.03;101425.44;4470125;32;34405;-69
2022/01/12 05:09:26;;;;;;;1.55;1.30;;;;;;;-3.32;62.36;101433.34;4470180;32;34615;-69
2022/01/12 05:14:56;;;;;;;0.60;0.60;;;;;;;-4.58;65.68;101433.78;4458282;32;33857;-69
2022/01/12 05:17:23;;;;;;;0.55;0.55;;;;;;;-4.37;64.79;101434.06;4477131;32;34039;-69
2022/01/12 05:19:51;;;;;;;2.65;2.55;;;;;;;-3.74;63.12;101437.41;4477378;32;34821;-69
2022/01/12 05:22:18;;;;;;;0.77;0.77;;;;;;;-3.68;62.80;101433.47;4475835;32;33905;-70
2022/01/12 05:24:46;;;;;;;2.97;1.87;;;;;;;-3.43;61.93;101440.44;4476060;32;34684;-70
2022/01/12 05:27:27;;;;;;;0.50;0.50;;;;;;;-3.62;62.63;101435.66;4477295;32;34514;-69
2022/01/12 05:29:54;;;;;;;0.85;0.85;;;;;;;-3.82;63.43;101435.34;4475285;32;34477;-70
2022/01/12 05:32:24;;;;;;;1.42;1.35;;;;;;;-3.68;63.49;101436.97;4476526;32;33878;-70
2022/01/12 05:34:58;;;;;;;0.80;0.80;;;;;;;-3.59;62.43;101443.37;4470935;32;34726;-69
2022/01/12 05:37:26;;;;;;;0.50;0.50;;;;;;;-3.63;62.02;101440.09;4474239;32;33375;-68
2022/01/12 05:39:53;;;;;;;0.50;0.50;;;;;;;-3.72;63.13;101443.44;4462748;32;33620;-69
2022/01/12 05:42:27;;;;;;;1.20;0.80;;;;;;;-3.67;63.14;101443.09;4476534;32;34092;-69
2022/01/12 05:44:54;;;;;;;1.10;1.00;;;;;;;-3.63;62.17;101437.44;4475091;32;33601;-69
2022/01/12 05:50:11;;;;;;;0.60;0.60;;;;;;;-3.88;63.74;101434.97;4460409;32;34566;-69
2022/01/12 05:52:39;;;;;;;1.27;0.62;;;;;;;-3.78;62.71;101436.81;4469717;32;35100;-69
2022/01/12 05:55:08;;;;;;;0.70;0.70;;;;;;;-3.72;63.45;101436.34;4469286;32;34735;-68
2022/01/12 05:57:36;;;;;;;1.23;1.12;;;;;;;-3.59;62.92;101438.06;4469297;32;34138;-72
2022/01/12 06:00:09;;;;;;;1.40;1.30;;;;;;;-3.79;63.10;101444.88;4455851;32;33978;-72
2022/01/12 06:02:40;;;;;;;2.80;2.60;;;;;;;-3.39;61.44;101449.81;4455783;32;34323;-71
2022/01/12 06:05:09;;;;;;;1.45;1.35;;;;;;;-3.72;62.64;101451.41;4469746;32;33963;-70
2022/01/12 06:07:37;;;;;;;0.80;0.80;;;;;;;-3.79;63.14;101451.03;4469625;32;34222;-70
2022/01/12 06:10:05;;;;;;;0.50;0.50;;;;;;;-3.71;62.68;101464.56;4471217;32;33442;-71
2022/01/12 06:12:33;;;;;;;11.45;5.50;;;;;;;-3.58;62.34;101464.50;4485118;32;33870;-71
2022/01/12 06:15:00;;;;;;;0.88;0.85;;;;;;;-3.80;63.45;101467.91;4484569;32;34119;-71
2022/01/12 06:17:29;;;;;;;0.65;0.65;;;;;;;-4.11;64.88;101471.94;4485088;32;33749;-71
2022/01/12 06:19:57;;;;;;;0.60;0.60;;;;;;;-3.92;65.27;101477.59;4484919;32;34560;-71
2022/01/12 06:22:26;;;;;;;0.60;0.60;;;;;;;-3.83;64.73;101491.13;4484488;32;34496;-71
2022/01/12 06:24:55;;;;;;;2.37;2.17;;;;;;;-3.68;64.28;101490.00;4484967;32;33688;-71
2022/01/12 06:27:27;;;;;;;0.60;0.60;;;;;;;-3.52;63.09;101490.56;4458124;32;34429;-70
2022/01/12 06:32:22;;;;;;;0.52;0.52;;;;;;;-4.10;64.63;101496.62;4482974;32;34199;-73
2022/01/12 06:34:50;;;;;;;2.40;1.95;;;;;;;-4.15;65.34;101489.88;4484900;32;34675;-71
2022/01/12 06:37:17;;;;;;;1.35;1.08;;;;;;;-3.49;62.65;101486.84;4478070;32;34162;-69
2022/01/12 06:39:50;;;;;;;1.95;1.67;;;;;;;-3.40;62.49;101494.09;4469243;32;33954;-69
2022/01/12 06:42:18;;;;;;;1.37;1.25;;;;;;;-4.21;65.08;101500.06;4468800;32;34310;-68
2022/01/12 06:44:47;;;;;;;0.60;0.60;;;;;;;-4.42;65.73;101495.34;4468279;32;33691;-70
2022/01/12 06:47:15;;;;;;;1.95;1.33;;;;;;;-3.48;63.56;101503.59;4455359;32;34439;-70
2022/01/12 06:49:42;;;;;;;2.78;2.60;;;;;;;-3.49;63.04;101500.09;4455090;32;33120;-70
2022/01/12 06:52:10;;;;;;;1.58;1.48;;;;;;;-4.39;66.54;101507.53;4468858;32;35012;-69
2022/01/12 06:54:39;;;;;;;8.23;3.90;;;;;;;-3.85;64.11;101504.50;4469046;32;34770;-70
2022/01/12 06:57:06;;;;;;;1.12;1.12;;;;;;;-3.60;63.85;101513.34;4469000;32;33295;-70
2022/01/12 06:59:34;;;;;;;1.58;1.48;;;;;;;-3.60;63.92;101514.16;4469014;32;34728;-69
2022/01/12 07:02:02;;;;;;;4.15;3.22;;;;;;;-3.33;63.04;101511.25;4469035;32;34246;-70
2022/01/12 07:04:30;;;;;;;1.77;1.67;;;;;;;-3.35;62.20;101520.28;4467517;32;33994;-71
2022/01/12 07:06:59;;;;;;;0.88;0.80;;;;;;;-3.52;62.72;101517.09;4488932;31;34416;-68
2022/01/12 07:09:28;;;;;;;0.90;0.90;;;;;;;-3.57;63.18;101508.63;4484894;31;34644;-69
2022/01/12 07:11:57;;;;;;;1.05;0.98;;;;;;;-3.18;62.26;101509.25;4498637;31;34259;-68
2022/01/12 07:14:26;;;;;;;1.30;1.20;;;;;;;-3.44;63.40;101513.88;4499729;31;33822;-68
2022/01/12 07:16:53;;;;;;;1.30;1.27;;;;;;;-3.29;62.70;101525.16;4500934;31;33428;-68
2022/01/12 07:19:21;;;;;;;1.20;1.15;;;;;;;-3.12;61.99;101526.53;4486324;31;32238;-68
2022/01/12 07:21:49;;;;;;;1.77;1.67;;;;;;;-3.34;62.58;101529.97;4500211;31;33933;-68
2022/01/12 07:24:17;;;;;;;2.35;1.35;;;;;;;-3.35;63.07;101536.22;4500838;31;33898;-68
2022/01/12 07:26:46;;;;;;;0.70;0.70;;;;;;;-3.38;63.19;101544.41;4486610;31;33544;-69
2022/01/12 07:29:13;;;;;;;4.57;3.10;;;;;;;-3.08;62.62;101541.28;4469235;32;33497;-69
2022/01/12 07:31:41;;;;;;;0.93;0.88;;;;;;;-2.81;61.76;101548.09;4469403;32;34285;-68
2022/01/12 07:34:10;;;;;;;0.62;0.62;;;;;;;-3.20;62.72;101551.00;4469177;32;34407;-68
2022/01/12 07:36:37;;;;;;;1.10;1.08;;;;;;;-3.14;62.72;101553.19;4468926;32;32904;-68
2022/01/12 07:39:05;;;;;;;1.00;1.00;;;;;;;-3.33;63.74;101558.19;4469327;32;33732;-68
2022/01/12 07:41:32;;;;;;;0.57;0.57;;;;;;;-2.74;61.88;101563.47;4468937;32;34147;-67
2022/01/12 07:44:00;;;;;;;0.52;0.52;;;;;;;-2.75;61.83;101556.44;4467297;32;33953;-68
2022/01/12 07:46:28;;;;;;;0.50;0.50;;;;;;;-2.72;62.01;101558.87;4469169;32;34243;-69
2022/01/12 07:48:56;;;;;;;2.30;1.85;;;;;;;-2.40;61.25;101558.16;4454861;32;33783;-68
2022/01/12 07:51:23;;;;;;;0.60;0.60;;;;;;;-3.01;62.82;101563.75;4468754;32;34772;-68
2022/01/12 07:53:51;;;;;;;0.93;0.85;;;;;;;-2.72;62.58;101573.94;4468954;32;34946;-67
2022/01/12 07:56:18;;;;;;;9.85;3.85;;;;;;;-2.81;64.95;101570.19;4468923;32;33290;-68
2022/01/12 07:58:45;;;;;;;23.27;12.55;;;;;;;-2.32;62.45;101568.22;4469242;32;33948;-68
2022/01/12 08:01:13;;;;;;;1.45;1.35;;;;;;;-2.24;62.05;101580.91;4455060;32;34190;-67
2022/01/12 08:03:41;;;;;;;2.17;1.12;;;;;;;-1.77;60.85;101581.59;4469079;32;33753;-69
2022/01/12 08:06:09;;;;;;;0.75;0.75;;;;;;;-1.66;60.08;101584.25;4468707;32;33044;-69
2022/01/12 08:08:36;;;;;;;1.65;0.68;;;;;;;-1.34;59.67;101586.09;4469128;32;33749;-68
2022/01/12 08:11:04;;;;;;;1.33;1.17;;;;;;;-1.00;58.79;101583.31;4468773;32;34777;-67
2022/01/12 08:13:31;;;;;;;19.67;10.30;;;;;;;-1.11;57.96;101579.72;4469170;32;33639;-69
2022/01/12 08:15:59;;;;;;;8.75;3.80;;;;;;;-0.54;57.75;101582.06;4466691;32;34397;-67
2022/01/12 08:18:27;;;;;;;1.70;0.90;;;;;;;-0.97;57.35;101577.72;4455013;32;33468;-68
2022/01/12 08:20:54;;;;;;;18.55;11.12;;;;;;;-0.33;55.85;101574.88;4468455;32;34540;-68
2022/01/12 08:23:22;;;;;;;18.08;10.40;;;;;;;-0.77;56.56;101579.56;4468638;32;34114;-68
2022/01/12 08:25:50;;;;;;;1.05;0.95;;;;;;;-0.63;56.71;101579.25;4467855;32;34335;-67
2022/01/12 08:28:17;;;;;;;1.73;1.62;;;;;;;-0.03;55.78;101590.06;4455039;32;33999;-68
2022/01/12 08:30:44;;;;;;;22.05;11.55;;;;;;;-0.01;54.92;101587.25;4468844;32;34243;-68
2022/01/12 08:33:12;;;;;;;20.90;10.88;;;;;;;0.69;52.97;101588.16;4454926;32;34211;-67
2022/01/12 08:35:40;;;;;;;20.77;10.50;;;;;;;0.71;52.83;101596.00;4468518;32;34457;-68
2022/01/12 08:38:07;;;;;;;1.30;1.20;;;;;;;1.36;51.71;101604.28;4466307;32;82340;-67
2022/01/12 08:40:38;;;;;;;3.87;1.87;;;;;;;0.84;52.30;101607.25;4468694;32;34076;-67
2022/01/12 08:43:05;;;;;;;19.67;10.38;;;;;;;1.57;50.45;101607.63;4468904;32;34210;-67
2022/01/12 08:45:33;;;;;;;17.05;9.02;;;;;;;0.40;52.31;101614.78;4467959;32;34708;-70
2022/01/12 08:48:01;;;;;;;1.58;1.30;;;;;;;1.11;51.03;101603.91;4454959;32;33876;-69
2022/01/12 08:50:28;;;;;;;19.75;11.25;;;;;;;2.14;48.19;101601.38;4468499;32;34154;-69
2022/01/12 08:52:56;;;;;;;20.10;10.45;;;;;;;2.18;48.66;101603.66;4469138;32;33433;-70
2022/01/12 08:55:24;;;;;;;16.40;9.63;;;;;;;2.04;49.07;101601.44;4469000;32;34322;-70
2022/01/12 08:57:51;;;;;;;18.75;10.18;;;;;;;1.53;50.01;101594.69;4454800;32;33868;-76
2022/01/12 09:00:19;;;;;;;3.92;1.85;;;;;;;2.45;48.54;101600.09;4468661;32;34988;-78
2022/01/12 09:02:47;;;;;;;0.77;0.77;;;;;;;2.98;47.16;101602.97;4454837;32;33665;-70
2022/01/12 09:05:15;;;;;;;1.27;0.70;;;;;;;2.32;47.46;101602.28;4468291;32;33623;-70
2022/01/12 09:07:43;;;;;;;20.00;10.30;;;;;;;3.61;45.41;101599.31;4468621;32;34521;-70
2022/01/12 09:10:11;;;;;;;21.65;12.15;;;;;;;3.84;45.37;101599.59;4454672;32;34222;-79
2022/01/12 09:12:39;;;;;;;22.02;10.90;;;;;;;4.31;43.97;101594.62;4468827;32;34048;-70
2022/01/12 09:15:08;;;;;;;16.83;10.05;;;;;;;4.53;42.89;101584.28;4467557;32;34378;-70
2022/01/12 09:17:36;;;;;;;21.77;10.68;;;;;;;4.83;43.09;101582.81;4454590;32;33771;-70
2022/01/12 09:20:05;;;;;;;18.55;10.02;;;;;;;5.17;42.88;101592.63;4468146;32;35048;-70
2022/01/12 09:22:32;;;;;;;17.70;10.13;;;;;;;5.19;41.60;101590.59;4467220;32;34735;-70
2022/01/12 09:25:01;;;;;;;19.12;9.80;;;;;;;5.41;42.06;101583.69;4469808;32;33184;-69
2022/01/12 09:27:28;;;;;;;19.00;9.45;;;;;;;4.44;42.91;101588.78;4455831;32;34628;-75
2022/01/12 09:29:55;;;;;;;18.15;9.85;;;;;;;3.51;43.85;101585.16;4469663;32;34090;-73
2022/01/12 09:32:23;;;;;;;15.75;8.00;;;;;;;3.24;44.75;101594.97;4469766;32;34788;-72
2022/01/12 09:34:50;;;;;;;18.42;9.20;;;;;;;3.98;43.52;101588.28;4469935;32;33181;-71
2022/01/12 09:37:20;;;;;;;15.57;8.68;;;;;;;5.20;42.07;101599.50;4469271;32;34027;-70
2022/01/12 09:39:48;;;;;;;16.75;9.93;;;;;;;5.83;40.04;101585.31;4469758;32;34295;-70
2022/01/12 09:42:16;;;;;;;18.40;9.27;;;;;;;5.62;40.20;101585.84;4455704;32;34123;-70
2022/01/12 09:44:46;;;;;;;16.73;9.10;;;;;;;4.30;41.97;101592.94;4455473;32;33174;-70
2022/01/12 09:47:16;;;;;;;15.57;8.15;;;;;;;3.92;42.45;101586.22;4469577;32;34706;-68
2022/01/12 09:49:45;;;;;;;15.95;8.85;;;;;;;4.68;42.18;101595.22;4469807;32;34380;-68
2022/01/12 09:52:13;;;;;;;16.80;9.20;;;;;;;4.41;41.86;101597.19;4469711;32;34747;-67
2022/01/12 09:54:42;;;;;;;15.98;8.80;;;;;;;4.86;41.71;101592.41;4469700;32;33553;-68
2022/01/12 09:57:09;;;;;;;15.77;9.25;;;;;;;5.33;41.41;101602.53;4469337;32;33851;-68
2022/01/12 09:59:37;;;;;;;18.48;9.80;;;;;;;5.40;40.81;101590.09;4470025;32;34217;-68
2022/01/12 10:02:14;;;;;;;19.65;10.48;;;;;;;4.83;40.52;101588.19;4469651;32;34570;-68
2022/01/12 10:04:42;;;;;;;18.55;9.27;;;;;;;3.56;43.97;101604.28;4469306;32;33552;-68
2022/01/12 10:07:11;;;;;;;18.62;9.43;;;;;;;3.95;42.98;101607.38;4469494;32;33999;-69
2022/01/12 10:09:43;;;;;;;19.15;10.70;;;;;;;4.59;42.42;101602.44;4469651;32;34185;-72
2022/01/12 10:12:13;;;;;;;17.30;9.63;;;;;;;4.07;42.45;101598.03;4469533;32;34173;-72
2022/01/12 10:14:46;;;;;;;15.40;9.25;;;;;;;4.51;42.70;101594.34;4469767;32;33144;-72
2022/01/12 10:17:14;;;;;;;22.17;12.68;;;;;;;3.43;44.87;101596.66;4455225;32;33956;-71
2022/01/12 10:19:41;;;;;;;19.48;11.45;;;;;;;4.25;42.69;101591.75;4469288;32;35045;-70
2022/01/12 10:22:11;;;;;;;23.38;12.90;;;;;;;3.69;44.44;101593.97;4469577;32;33625;-70
2022/01/12 10:24:41;;;;;;;20.92;10.63;;;;;;;4.20;43.42;101592.22;4469168;32;33538;-72
2022/01/12 10:27:19;;;;;;;27.05;12.90;;;;;;;4.15;44.00;101591.03;4469400;32;34795;-71
2022/01/12 10:29:56;;;;;;;22.58;11.90;;;;;;;4.65;42.53;101593.72;4469130;32;34297;-71
2022/01/12 10:32:24;;;;;;;20.00;10.43;;;;;;;4.35;42.12;101589.78;4467286;32;34630;-69
2022/01/12 10:34:51;;;;;;;21.60;11.93;;;;;;;4.57;42.09;101593.69;4469190;32;33493;-75
2022/01/12 10:37:26;;;;;;;22.98;11.82;;;;;;;4.71;42.07;101603.81;4468802;32;34007;-68
2022/01/12 10:39:55;;;;;;;20.12;10.02;;;;;;;4.99;41.45;101595.47;4469037;32;34015;-72
2022/01/12 10:42:25;;;;;;;18.35;10.10;;;;;;;4.68;41.19;101590.69;4455036;32;33784;-72
2022/01/12 10:45:01;;;;;;;15.82;8.93;;;;;;;3.95;43.33;101591.25;4468842;32;33312;-68
2022/01/12 10:47:31;;;;;;;17.87;9.07;;;;;;;4.30;42.82;101584.06;4455141;32;34754;-70
2022/01/12 10:50:03;;;;;;;19.12;9.15;;;;;;;4.67;41.78;101578.28;4470148;32;35173;-69
2022/01/12 10:52:38;;;;;;;18.48;9.88;;;;;;;3.87;42.95;101592.06;4456453;32;33687;-71
2022/01/12 10:55:08;;;;;;;19.73;9.75;;;;;;;3.90;42.78;101575.63;4455461;32;33308;-72
2022/01/12 10:57:41;;;;;;;18.73;10.32;;;;;;;4.74;41.06;101578.44;4469988;32;34705;-69
2022/01/12 11:00:25;;;;;;;19.52;10.38;;;;;;;4.75;41.53;101584.66;4470968;32;33974;-68
2022/01/12 11:02:56;;;;;;;19.37;10.15;;;;;;;4.77;40.84;101582.66;4470501;32;33760;-68
2022/01/12 11:05:26;;;;;;;18.85;10.27;;;;;;;5.03;40.60;101574.44;4469601;32;34291;-69
2022/01/12 11:07:54;;;;;;;18.42;10.25;;;;;;;4.37;41.42;101570.81;4470150;32;33624;-68
2022/01/12 11:10:22;;;;;;;22.42;10.45;;;;;;;4.66;39.71;101568.50;4470009;32;34125;-68
2022/01/12 11:12:50;;;;;;;19.00;9.60;;;;;;;4.40;41.33;101571.31;4470645;32;33975;-69
2022/01/12 11:15:20;;;;;;;16.27;9.07;;;;;;;4.49;40.33;101570.34;4470807;32;33445;-69
2022/01/12 11:17:50;;;;;;;17.08;9.18;;;;;;;3.76;41.75;101575.38;4457027;32;33760;-67
2022/01/12 11:20:25;;;;;;;17.73;9.75;;;;;;;3.66;42.29;101578.19;4470370;32;34163;-70
2022/01/12 11:23:06;;;;;;;15.05;9.18;;;;;;;3.23;43.17;101582.59;4456840;32;33934;-68
2022/01/12 11:25:38;;;;;;;20.62;10.48;;;;;;;2.55;44.11;101585.78;4456489;32;34384;-70
2022/01/12 11:28:12;;;;;;;25.40;13.00;;;;;;;3.10;44.13;101582.97;4470857;32;34666;-70
2022/01/12 11:30:50;;;;;;;23.35;11.02;;;;;;;3.97;42.19;101575.00;4470566;32;34119;-71
2022/01/12 11:33:20;;;;;;;21.83;11.38;;;;;;;4.38;42.02;101575.16;4470657;32;33784;-71
2022/01/12 11:35:50;;;;;;;18.83;10.02;;;;;;;4.86;40.90;101579.81;4456359;32;31925;-71
2022/01/12 11:38:22;;;;;;;19.62;10.57;;;;;;;3.56;41.71;101578.28;4470721;32;33919;-70
2022/01/12 11:40:50;;;;;;;19.33;10.70;;;;;;;3.85;42.28;101574.44;4470503;32;35002;-70
2022/01/12 11:43:27;;;;;;;18.10;10.88;;;;;;;2.76;45.31;101572.13;4470213;32;33702;-71
2022/01/12 11:46:06;;;;;;;18.70;10.48;;;;;;;3.47;44.57;101571.19;4470516;32;33436;-70
2022/01/12 11:48:42;;;;;;;22.17;11.07;;;;;;;3.62;44.34;101572.28;4470464;32;34052;-71
2022/01/12 11:51:10;;;;;;;19.10;10.05;;;;;;;3.18;44.92;101563.44;4443839;32;33578;-70
2022/01/12 11:53:49;;;;;;;22.15;11.12;;;;;;;4.41;42.09;101562.25;4470822;32;34022;-71
2022/01/12 11:56:24;;;;;;;20.25;11.10;;;;;;;4.79;41.80;101559.13;4456439;32;33398;-71
2022/01/12 11:58:59;;;;;;;19.92;10.90;;;;;;;5.33;40.24;101557.62;4456717;32;34768;-71
2022/01/12 12:01:37;;;;;;;21.70;11.55;;;;;;;5.70;40.02;101550.84;4470039;32;35174;-70
2022/01/12 12:04:06;;;;;;;20.02;11.77;;;;;;;5.75;40.11;101548.44;4470475;32;35139;-71
2022/01/12 12:06:33;;;;;;;22.42;11.85;;;;;;;5.87;40.00;101550.75;4470328;32;34374;-70
2022/01/12 12:09:07;;;;;;;23.75;12.00;;;;;;;5.44;40.66;101566.34;4456469;32;33632;-70
2022/01/12 12:11:35;;;;;;;22.42;12.80;;;;;;;5.68;40.24;101557.38;4456911;32;35054;-71
2022/01/12 12:14:05;;;;;;;24.20;12.73;;;;;;;6.18;39.66;101547.28;4456163;32;33785;-70
2022/01/12 12:16:34;;;;;;;21.58;12.70;;;;;;;6.15;39.11;101545.81;4456384;32;33948;-71
2022/01/12 12:19:05;;;;;;;24.20;12.48;;;;;;;5.84;38.91;101543.88;4470302;32;33935;-71
2022/01/12 12:21:33;;;;;;;22.65;13.15;;;;;;;4.78;41.82;101546.69;4470253;32;34941;-71
2022/01/12 12:24:12;;;;;;;23.92;12.88;;;;;;;5.38;40.70;101553.56;4482949;31;33808;-75
2022/01/12 12:26:50;;;;;;;23.42;12.77;;;;;;;5.93;39.23;101552.75;4486084;31;33408;-70
2022/01/12 12:29:27;;;;;;;20.55;12.10;;;;;;;6.19;38.09;101554.38;4500305;31;34850;-71
2022/01/12 12:31:56;;;;;;;21.30;12.18;;;;;;;6.08;38.07;101555.59;4500350;31;34084;-70
2022/01/12 12:34:25;;;;;;;19.83;11.93;;;;;;;6.15;38.00;101551.19;4486032;31;33573;-71
2022/01/12 12:37:04;;;;;;;24.73;12.57;;;;;;;5.93;37.56;101553.59;4500483;31;33163;-71
2022/01/12 12:39:34;;;;;;;23.85;12.23;;;;;;;5.21;39.07;101553.59;4485859;31;33907;-71
2022/01/12 12:42:03;;;;;;;22.15;13.18;;;;;;;5.38;39.72;101562.50;4486262;31;34903;-71
2022/01/12 12:44:32;;;;;;;22.10;12.07;;;;;;;5.10;40.38;101568.22;4500153;31;34558;-71
2022/01/12 12:47:09;;;;;;;25.42;13.50;;;;;;;4.54;40.92;101571.69;4499957;31;34232;-71
2022/01/12 12:49:47;;;;;;;23.42;11.90;;;;;;;4.69;41.33;101562.81;4500074;31;34659;-70
2022/01/12 12:52:34;;;;;;;24.83;12.00;;;;;;;4.85;39.87;101561.16;4499868;31;34177;-71
2022/01/12 12:55:05;;;;;;;22.60;11.90;;;;;;;5.02;40.43;101551.25;4485194;31;34227;-71
2022/01/12 12:57:33;;;;;;;22.67;11.55;;;;;;;4.43;41.11;101552.19;4500400;31;33807;-70